< < Back
Terminal Aerodrome Forecast


Current Version              Previous Versions:   1  2  3  4  5  6  7  8  9  

Terminal Aerodrome Forecast

980
FTUS42 KFFC 051738
TAFPDK
TAF
KPDK 051738Z 0518/0618 35008G16KT P6SM SKC
     FM052000 35009KT P6SM SKC
     FM060000 32004KT P6SM SKC
     FM061000 04005KT P6SM SKC
     FM061500 07006KT P6SM SCT120=



Latest METAR

208
SAUS70 KWBC 061700 RRX
MTRPDK
METAR KPDK 061953Z 01006KT 10SM CLR 10/M08 A3026 RMK AO2 SLP257
T01001083


USA.gov is the U.S. government's official web portal to all federal, state and local government web resources and services.